sensor_id;sensor_type;location;lat;lon;timestamp;pressure;altitude;pressure_sealevel;temperature;humidity
16481;BME280;44634;54.110;12.138;2022-10-03T00:00:23;101006.38;;;15.67;100.00
16481;BME280;44634;54.110;12.138;2022-10-03T00:03:15;101009.13;;;15.41;100.00
16481;BME280;44634;54.110;12.138;2022-10-03T00:05:56;101017.22;;;15.73;100.00
16481;BME280;44634;54.110;12.138;2022-10-03T00:08:53;101031.16;;;15.59;100.00
16481;BME280;44634;54.110;12.138;2022-10-03T00:11:31;101044.88;;;15.30;100.00
16481;BME280;44634;54.110;12.138;2022-10-03T00:14:14;101041.41;;;15.80;100.00
16481;BME280;44634;54.110;12.138;2022-10-03T00:16:48;101034.38;;;15.71;100.00
16481;BME280;44634;54.110;12.138;2022-10-03T00:19:28;101030.03;;;15.70;100.00
16481;BME280;44634;54.110;12.138;2022-10-03T00:22:12;101034.75;;;15.34;100.00
16481;BME280;44634;54.110;12.138;2022-10-03T00:24:53;101045.34;;;15.26;100.00
16481;BME280;44634;54.110;12.138;2022-10-03T00:27:31;101047.84;;;15.19;100.00
16481;BME280;44634;54.110;12.138;2022-10-03T00:30:07;101048.50;;;15.21;100.00
16481;BME280;44634;54.110;12.138;2022-10-03T00:32:59;101044.88;;;15.30;100.00
16481;BME280;44634;54.110;12.138;2022-10-03T00:35:55;101055.34;;;15.24;100.00
16481;BME280;44634;54.110;12.138;2022-10-03T00:42:06;101080.69;;;15.02;100.00
16481;BME280;44634;54.110;12.138;2022-10-03T00:53:35;101088.88;;;15.42;100.00
16481;BME280;44634;54.110;12.138;2022-10-03T00:59:26;101096.38;;;15.47;100.00
16481;BME280;44634;54.110;12.138;2022-10-03T01:02:18;101101.63;;;15.23;100.00
16481;BME280;44634;54.110;12.138;2022-10-03T01:04:58;101100.97;;;15.29;100.00
16481;BME280;44634;54.110;12.138;2022-10-03T01:07:54;101088.16;;;14.98;100.00
16481;BME280;44634;54.110;12.138;2022-10-03T01:10:32;101093.78;;;15.21;100.00
16481;BME280;44634;54.110;12.138;2022-10-03T01:13:15;101111.03;;;15.35;100.00
16481;BME280;44634;54.110;12.138;2022-10-03T01:15:58;101105.09;;;15.49;100.00
16481;BME280;44634;54.110;12.138;2022-10-03T01:18:38;101099.38;;;15.10;100.00
16481;BME280;44634;54.110;12.138;2022-10-03T01:21:15;101117.69;;;15.05;100.00
16481;BME280;44634;54.110;12.138;2022-10-03T01:24:29;101130.84;;;15.06;100.00
16481;BME280;44634;54.110;12.138;2022-10-03T01:27:03;101129.69;;;15.09;100.00
16481;BME280;44634;54.110;12.138;2022-10-03T01:29:43;101137.94;;;15.32;100.00
16481;BME280;44634;54.110;12.138;2022-10-03T01:32:37;101140.69;;;15.14;100.00
16481;BME280;44634;54.110;12.138;2022-10-03T01:35:15;101143.09;;;14.99;100.00
16481;BME280;44634;54.110;12.138;2022-10-03T01:37:49;101173.16;;;14.92;100.00
16481;BME280;44634;54.110;12.138;2022-10-03T01:40:22;101169.19;;;14.96;100.00
16481;BME280;44634;54.110;12.138;2022-10-03T01:43:07;101168.03;;;14.98;100.00
16481;BME280;44634;54.110;12.138;2022-10-03T01:45:57;101169.16;;;15.13;100.00
16481;BME280;44634;54.110;12.138;2022-10-03T01:48:34;101186.47;;;15.17;100.00
16481;BME280;44634;54.110;12.138;2022-10-03T01:51:10;101189.84;;;15.20;100.00
16481;BME280;44634;54.110;12.138;2022-10-03T01:53:59;101189.06;;;15.27;100.00
16481;BME280;44634;54.110;12.138;2022-10-03T01:56:32;101199.94;;;15.34;100.00
16481;BME280;44634;54.110;12.138;2022-10-03T01:59:07;101201.84;;;15.24;100.00
16481;BME280;44634;54.110;12.138;2022-10-03T02:01:46;101190.81;;;15.18;100.00
16481;BME280;44634;54.110;12.138;2022-10-03T02:04:30;101222.47;;;14.96;100.00
16481;BME280;44634;54.110;12.138;2022-10-03T02:07:06;101244.38;;;15.33;100.00
16481;BME280;44634;54.110;12.138;2022-10-03T02:09:49;101245.25;;;15.16;100.00
16481;BME280;44634;54.110;12.138;2022-10-03T02:12:26;101248.84;;;15.07;100.00
16481;BME280;44634;54.110;12.138;2022-10-03T02:15:07;101255.09;;;14.98;100.00
16481;BME280;44634;54.110;12.138;2022-10-03T02:17:47;101215.09;;;15.15;100.00
16481;BME280;44634;54.110;12.138;2022-10-03T02:20:31;101213.28;;;15.16;100.00
16481;BME280;44634;54.110;12.138;2022-10-03T02:23:01;101221.66;;;15.21;100.00
16481;BME280;44634;54.110;12.138;2022-10-03T02:25:55;101180.72;;;14.78;100.00
16481;BME280;44634;54.110;12.138;2022-10-03T02:28:50;101201.91;;;14.88;100.00
16481;BME280;44634;54.110;12.138;2022-10-03T02:32:09;101158.19;;;14.73;100.00
16481;BME280;44634;54.110;12.138;2022-10-03T02:35:02;101183.50;;;14.95;100.00
16481;BME280;44634;54.110;12.138;2022-10-03T02:37:49;101203.19;;;15.02;100.00
16481;BME280;44634;54.110;12.138;2022-10-03T02:40:45;101226.66;;;15.24;100.00
16481;BME280;44634;54.110;12.138;2022-10-03T02:43:49;101226.41;;;14.74;100.00
16481;BME280;44634;54.110;12.138;2022-10-03T02:46:41;101206.56;;;14.68;100.00
16481;BME280;44634;54.110;12.138;2022-10-03T02:49:30;101215.78;;;15.17;100.00
16481;BME280;44634;54.110;12.138;2022-10-03T02:52:31;101217.88;;;15.06;100.00
16481;BME280;44634;54.110;12.138;2022-10-03T02:55:39;101225.81;;;14.80;100.00
16481;BME280;44634;54.110;12.138;2022-10-03T03:01:49;101223.13;;;14.98;100.00
16481;BME280;44634;54.110;12.138;2022-10-03T03:07:41;101266.03;;;15.12;100.00
16481;BME280;44634;54.110;12.138;2022-10-03T03:10:37;101295.00;;;15.33;100.00
16481;BME280;44634;54.110;12.138;2022-10-03T03:16:31;101279.41;;;15.03;100.00
16481;BME280;44634;54.110;12.138;2022-10-03T03:19:14;101301.03;;;15.00;100.00
16481;BME280;44634;54.110;12.138;2022-10-03T03:21:50;101288.19;;;15.13;100.00
16481;BME280;44634;54.110;12.138;2022-10-03T03:24:43;101276.59;;;15.04;100.00
16481;BME280;44634;54.110;12.138;2022-10-03T03:27:31;101277.13;;;14.72;100.00
16481;BME280;44634;54.110;12.138;2022-10-03T03:30:06;101259.19;;;14.56;100.00
16481;BME280;44634;54.110;12.138;2022-10-03T03:32:45;101263.16;;;15.06;100.00
16481;BME280;44634;54.110;12.138;2022-10-03T03:35:28;101279.88;;;15.16;100.00
16481;BME280;44634;54.110;12.138;2022-10-03T03:38:10;101255.56;;;14.93;100.00
16481;BME280;44634;54.110;12.138;2022-10-03T03:40:50;101273.41;;;15.01;100.00
16481;BME280;44634;54.110;12.138;2022-10-03T03:43:36;101235.63;;;14.79;100.00
16481;BME280;44634;54.110;12.138;2022-10-03T03:46:18;101246.19;;;15.33;100.00
16481;BME280;44634;54.110;12.138;2022-10-03T03:49:07;101265.00;;;15.05;100.00
16481;BME280;44634;54.110;12.138;2022-10-03T03:51:50;101249.84;;;14.88;100.00
16481;BME280;44634;54.110;12.138;2022-10-03T03:54:35;101276.16;;;15.09;100.00
16481;BME280;44634;54.110;12.138;2022-10-03T03:57:22;101255.69;;;15.09;100.00
16481;BME280;44634;54.110;12.138;2022-10-03T04:00:03;101251.13;;;15.20;100.00
16481;BME280;44634;54.110;12.138;2022-10-03T04:02:52;101264.13;;;14.87;100.00
16481;BME280;44634;54.110;12.138;2022-10-03T04:05:29;101256.84;;;15.07;100.00
16481;BME280;44634;54.110;12.138;2022-10-03T04:08:15;101266.09;;;15.03;100.00
16481;BME280;44634;54.110;12.138;2022-10-03T04:10:55;101280.72;;;14.63;100.00
16481;BME280;44634;54.110;12.138;2022-10-03T04:13:38;101296.38;;;15.02;100.00
16481;BME280;44634;54.110;12.138;2022-10-03T04:16:27;101339.69;;;15.04;100.00
16481;BME280;44634;54.110;12.138;2022-10-03T04:19:24;101342.59;;;14.93;100.00
16481;BME280;44634;54.110;12.138;2022-10-03T04:22:13;101338.41;;;15.08;100.00
16481;BME280;44634;54.110;12.138;2022-10-03T04:28:00;101373.38;;;14.77;100.00
16481;BME280;44634;54.110;12.138;2022-10-03T04:30:39;101378.78;;;14.85;100.00
16481;BME280;44634;54.110;12.138;2022-10-03T04:33:26;101380.53;;;14.77;100.00
16481;BME280;44634;54.110;12.138;2022-10-03T04:36:32;101391.72;;;14.98;100.00
16481;BME280;44634;54.110;12.138;2022-10-03T04:39:09;101386.22;;;14.82;100.00
16481;BME280;44634;54.110;12.138;2022-10-03T04:41:44;101407.66;;;15.08;100.00
16481;BME280;44634;54.110;12.138;2022-10-03T04:44:31;101369.31;;;14.73;100.00
16481;BME280;44634;54.110;12.138;2022-10-03T04:47:07;101385.63;;;14.61;100.00
16481;BME280;44634;54.110;12.138;2022-10-03T04:49:44;101382.72;;;14.81;100.00
16481;BME280;44634;54.110;12.138;2022-10-03T04:52:26;101391.44;;;14.74;100.00
16481;BME280;44634;54.110;12.138;2022-10-03T04:55:02;101384.44;;;14.45;100.00
16481;BME280;44634;54.110;12.138;2022-10-03T04:57:36;101374.66;;;14.36;100.00
16481;BME280;44634;54.110;12.138;2022-10-03T05:00:20;101382.59;;;14.83;100.00
16481;BME280;44634;54.110;12.138;2022-10-03T05:02:57;101387.66;;;14.39;100.00
16481;BME280;44634;54.110;12.138;2022-10-03T05:05:49;101380.41;;;14.69;100.00
16481;BME280;44634;54.110;12.138;2022-10-03T05:08:32;101392.94;;;14.58;100.00
16481;BME280;44634;54.110;12.138;2022-10-03T05:11:14;101386.34;;;14.63;100.00
16481;BME280;44634;54.110;12.138;2022-10-03T05:14:00;101367.59;;;14.54;100.00
16481;BME280;44634;54.110;12.138;2022-10-03T05:16:38;101376.75;;;14.70;100.00
16481;BME280;44634;54.110;12.138;2022-10-03T05:19:41;101366.72;;;14.64;100.00
16481;BME280;44634;54.110;12.138;2022-10-03T05:22:23;101361.19;;;14.75;100.00
16481;BME280;44634;54.110;12.138;2022-10-03T05:24:57;101391.53;;;14.64;100.00
16481;BME280;44634;54.110;12.138;2022-10-03T05:27:34;101411.13;;;14.63;100.00
16481;BME280;44634;54.110;12.138;2022-10-03T05:30:06;101370.72;;;14.50;100.00
16481;BME280;44634;54.110;12.138;2022-10-03T05:32:40;101369.44;;;14.99;100.00
16481;BME280;44634;54.110;12.138;2022-10-03T05:35:23;101375.31;;;14.75;100.00
16481;BME280;44634;54.110;12.138;2022-10-03T05:38:08;101381.09;;;14.98;100.00
16481;BME280;44634;54.110;12.138;2022-10-03T05:40:42;101382.59;;;14.83;100.00
16481;BME280;44634;54.110;12.138;2022-10-03T05:43:25;101389.50;;;14.76;100.00
16481;BME280;44634;54.110;12.138;2022-10-03T05:46:00;101375.47;;;14.74;100.00
16481;BME280;44634;54.110;12.138;2022-10-03T05:48:37;101408.88;;;15.13;100.00
16481;BME280;44634;54.110;12.138;2022-10-03T05:57:41;101411.06;;;15.00;100.00
16481;BME280;44634;54.110;12.138;2022-10-03T06:00:20;101414.72;;;14.99;100.00
16481;BME280;44634;54.110;12.138;2022-10-03T06:03:23;101391.88;;;14.97;100.00
16481;BME280;44634;54.110;12.138;2022-10-03T06:06:08;101402.97;;;15.20;100.00
16481;BME280;44634;54.110;12.138;2022-10-03T06:08:51;101383.16;;;15.40;100.00
16481;BME280;44634;54.110;12.138;2022-10-03T06:11:33;101386.84;;;14.76;100.00
16481;BME280;44634;54.110;12.138;2022-10-03T06:14:27;101396.97;;;14.90;100.00
16481;BME280;44634;54.110;12.138;2022-10-03T06:17:11;101399.69;;;14.80;100.00
16481;BME280;44634;54.110;12.138;2022-10-03T06:19:48;101383.75;;;14.98;100.00
16481;BME280;44634;54.110;12.138;2022-10-03T06:22:46;101412.50;;;14.95;100.00
16481;BME280;44634;54.110;12.138;2022-10-03T06:25:51;101426.84;;;14.84;100.00
16481;BME280;44634;54.110;12.138;2022-10-03T06:28:52;101441.94;;;14.66;100.00
16481;BME280;44634;54.110;12.138;2022-10-03T06:37:52;101448.28;;;15.10;100.00
16481;BME280;44634;54.110;12.138;2022-10-03T06:40:57;101441.81;;;15.12;100.00
16481;BME280;44634;54.110;12.138;2022-10-03T06:43:44;101435.22;;;14.89;100.00
16481;BME280;44634;54.110;12.138;2022-10-03T06:46:49;101443.59;;;15.22;100.00
16481;BME280;44634;54.110;12.138;2022-10-03T06:49:39;101439.25;;;15.21;100.00
16481;BME280;44634;54.110;12.138;2022-10-03T06:52:24;101444.78;;;15.09;100.00
16481;BME280;44634;54.110;12.138;2022-10-03T06:58:28;101414.50;;;15.46;100.00
16481;BME280;44634;54.110;12.138;2022-10-03T07:01:30;101435.56;;;15.67;100.00
16481;BME280;44634;54.110;12.138;2022-10-03T07:04:25;101410.69;;;14.95;100.00
16481;BME280;44634;54.110;12.138;2022-10-03T07:07:17;101410.63;;;15.05;100.00
16481;BME280;44634;54.110;12.138;2022-10-03T07:10:16;101418.78;;;15.39;100.00
16481;BME280;44634;54.110;12.138;2022-10-03T07:13:10;101427.72;;;15.83;100.00
16481;BME280;44634;54.110;12.138;2022-10-03T07:16:06;101448.81;;;15.76;100.00
16481;BME280;44634;54.110;12.138;2022-10-03T07:19:05;101472.50;;;15.97;100.00
16481;BME280;44634;54.110;12.138;2022-10-03T07:27:56;101427.72;;;15.65;100.00
16481;BME280;44634;54.110;12.138;2022-10-03T07:30:35;101410.09;;;16.16;100.00
16481;BME280;44634;54.110;12.138;2022-10-03T07:33:48;101435.69;;;16.27;100.00
16481;BME280;44634;54.110;12.138;2022-10-03T07:36:30;101415.31;;;16.00;100.00
16481;BME280;44634;54.110;12.138;2022-10-03T07:39:32;101428.19;;;16.30;100.00
16481;BME280;44634;54.110;12.138;2022-10-03T07:42:26;101413.59;;;16.17;100.00
16481;BME280;44634;54.110;12.138;2022-10-03T07:45:19;101411.47;;;16.80;100.00
16481;BME280;44634;54.110;12.138;2022-10-03T07:48:14;101466.16;;;16.68;100.00
16481;BME280;44634;54.110;12.138;2022-10-03T07:51:15;101449.31;;;16.76;100.00
16481;BME280;44634;54.110;12.138;2022-10-03T07:54:04;101501.84;;;17.60;100.00
16481;BME280;44634;54.110;12.138;2022-10-03T07:56:56;101494.88;;;16.74;100.00
16481;BME280;44634;54.110;12.138;2022-10-03T08:03:03;101502.66;;;16.93;100.00
16481;BME280;44634;54.110;12.138;2022-10-03T08:05:57;101513.66;;;16.64;100.00
16481;BME280;44634;54.110;12.138;2022-10-03T08:08:59;101568.13;;;17.74;100.00
16481;BME280;44634;54.110;12.138;2022-10-03T08:14:39;101516.72;;;16.70;100.00
16481;BME280;44634;54.110;12.138;2022-10-03T08:17:32;101498.75;;;16.54;100.00
16481;BME280;44634;54.110;12.138;2022-10-03T08:20:18;101441.03;;;16.87;100.00
16481;BME280;44634;54.110;12.138;2022-10-03T08:23:02;101453.69;;;16.85;100.00
16481;BME280;44634;54.110;12.138;2022-10-03T08:25:47;101451.88;;;16.85;100.00
16481;BME280;44634;54.110;12.138;2022-10-03T08:28:37;101484.88;;;17.10;100.00
16481;BME280;44634;54.110;12.138;2022-10-03T08:31:44;101477.84;;;17.09;100.00
16481;BME280;44634;54.110;12.138;2022-10-03T08:34:37;101452.25;;;17.07;100.00
16481;BME280;44634;54.110;12.138;2022-10-03T08:37:40;101437.34;;;16.88;100.00
16481;BME280;44634;54.110;12.138;2022-10-03T08:43:57;101425.41;;;16.40;100.00
16481;BME280;44634;54.110;12.138;2022-10-03T08:46:52;101409.31;;;16.92;100.00
16481;BME280;44634;54.110;12.138;2022-10-03T08:49:45;101420.31;;;16.81;100.00
16481;BME280;44634;54.110;12.138;2022-10-03T08:52:27;101429.72;;;16.93;100.00
16481;BME280;44634;54.110;12.138;2022-10-03T09:01:33;101448.28;;;16.17;100.00
16481;BME280;44634;54.110;12.138;2022-10-03T09:04:38;101455.97;;;15.94;100.00
16481;BME280;44634;54.110;12.138;2022-10-03T09:07:44;101444.19;;;16.04;100.00
16481;BME280;44634;54.110;12.138;2022-10-03T09:10:34;101459.38;;;16.30;100.00
16481;BME280;44634;54.110;12.138;2022-10-03T09:19:25;101509.25;;;15.58;100.00
16481;BME280;44634;54.110;12.138;2022-10-03T09:22:14;101559.88;;;16.03;100.00
16481;BME280;44634;54.110;12.138;2022-10-03T09:30:53;101632.47;;;16.25;100.00
16481;BME280;44634;54.110;12.138;2022-10-03T09:34:07;101665.00;;;15.93;100.00
16481;BME280;44634;54.110;12.138;2022-10-03T09:52:26;101531.25;;;16.49;100.00
16481;BME280;44634;54.110;12.138;2022-10-03T09:58:15;101578.78;;;19.12;100.00
16481;BME280;44634;54.110;12.138;2022-10-03T10:01:06;101564.66;;;18.14;100.00
16481;BME280;44634;54.110;12.138;2022-10-03T10:04:06;101501.44;;;17.97;100.00
16481;BME280;44634;54.110;12.138;2022-10-03T10:16:50;101692.06;;;18.65;100.00
16481;BME280;44634;54.110;12.138;2022-10-03T10:19:44;101711.16;;;18.70;100.00
16481;BME280;44634;54.110;12.138;2022-10-03T10:22:50;101677.88;;;18.06;100.00
16481;BME280;44634;54.110;12.138;2022-10-03T10:25:34;101771.88;;;19.84;100.00
16481;BME280;44634;54.110;12.138;2022-10-03T10:47:23;101697.25;;;20.10;100.00
16481;BME280;44634;54.110;12.138;2022-10-03T10:50:48;101875.97;;;20.99;100.00
16481;BME280;44634;54.110;12.138;2022-10-03T10:56:59;101867.50;;;19.77;100.00
16481;BME280;44634;54.110;12.138;2022-10-03T11:06:29;101886.00;;;20.43;100.00
16481;BME280;44634;54.110;12.138;2022-10-03T11:09:45;101877.84;;;20.04;100.00
16481;BME280;44634;54.110;12.138;2022-10-03T11:32:05;101965.53;;;21.54;100.00
16481;BME280;44634;54.110;12.138;2022-10-03T11:35:17;101989.78;;;21.77;100.00
16481;BME280;44634;54.110;12.138;2022-10-03T11:38:03;101985.56;;;21.97;100.00
16481;BME280;44634;54.110;12.138;2022-10-03T11:40:43;101986.75;;;21.26;100.00
16481;BME280;44634;54.110;12.138;2022-10-03T11:50:22;102001.13;;;21.41;100.00
16481;BME280;44634;54.110;12.138;2022-10-03T11:53:11;102000.06;;;21.11;100.00
16481;BME280;44634;54.110;12.138;2022-10-03T11:55:57;101986.47;;;21.89;100.00
16481;BME280;44634;54.110;12.138;2022-10-03T11:58:54;101992.47;;;22.00;100.00
16481;BME280;44634;54.110;12.138;2022-10-03T12:01:47;101983.13;;;20.71;100.00
16481;BME280;44634;54.110;12.138;2022-10-03T12:11:02;101979.97;;;20.60;100.00
16481;BME280;44634;54.110;12.138;2022-10-03T12:13:37;101941.78;;;20.01;100.00
16481;BME280;44634;54.110;12.138;2022-10-03T12:16:14;101949.75;;;20.49;100.00
16481;BME280;44634;54.110;12.138;2022-10-03T12:18:57;101983.38;;;20.93;100.00
16481;BME280;44634;54.110;12.138;2022-10-03T12:21:38;101987.13;;;21.15;100.00
16481;BME280;44634;54.110;12.138;2022-10-03T12:24:21;101984.56;;;20.90;100.00
16481;BME280;44634;54.110;12.138;2022-10-03T12:26:57;101977.34;;;19.95;100.00
16481;BME280;44634;54.110;12.138;2022-10-03T12:29:30;101987.03;;;21.00;100.00
16481;BME280;44634;54.110;12.138;2022-10-03T12:32:13;101991.16;;;22.63;100.00
16481;BME280;44634;54.110;12.138;2022-10-03T12:34:48;101992.84;;;22.11;100.00
16481;BME280;44634;54.110;12.138;2022-10-03T12:37:34;101998.81;;;21.61;100.00
16481;BME280;44634;54.110;12.138;2022-10-03T12:40:13;101958.69;;;20.42;100.00
16481;BME280;44634;54.110;12.138;2022-10-03T12:42:47;102007.94;;;21.21;100.00
16481;BME280;44634;54.110;12.138;2022-10-03T12:45:24;101981.69;;;21.23;100.00
16481;BME280;44634;54.110;12.138;2022-10-03T12:48:01;101989.88;;;22.06;100.00
16481;BME280;44634;54.110;12.138;2022-10-03T12:50:40;102004.00;;;22.46;100.00
16481;BME280;44634;54.110;12.138;2022-10-03T12:53:34;102015.91;;;21.45;100.00
16481;BME280;44634;54.110;12.138;2022-10-03T12:56:14;101993.19;;;22.75;100.00
16481;BME280;44634;54.110;12.138;2022-10-03T12:58:51;102005.91;;;21.23;100.00
16481;BME280;44634;54.110;12.138;2022-10-03T13:01:27;101963.97;;;20.66;100.00
16481;BME280;44634;54.110;12.138;2022-10-03T13:04:00;101954.38;;;19.76;100.00
16481;BME280;44634;54.110;12.138;2022-10-03T13:06:39;101910.69;;;18.58;100.00
16481;BME280;44634;54.110;12.138;2022-10-03T13:10:00;101869.56;;;18.67;100.00
16481;BME280;44634;54.110;12.138;2022-10-03T13:12:43;101808.19;;;18.40;100.00
16481;BME280;44634;54.110;12.138;2022-10-03T13:15:42;101775.06;;;17.73;100.00
16481;BME280;44634;54.110;12.138;2022-10-03T13:18:28;101699.56;;;17.87;100.00
16481;BME280;44634;54.110;12.138;2022-10-03T13:21:04;101722.56;;;18.81;100.00
16481;BME280;44634;54.110;12.138;2022-10-03T13:23:57;101736.03;;;18.47;100.00
16481;BME280;44634;54.110;12.138;2022-10-03T13:26:37;101725.75;;;18.18;100.00
16481;BME280;44634;54.110;12.138;2022-10-03T13:29:18;101696.97;;;18.11;100.00
16481;BME280;44634;54.110;12.138;2022-10-03T13:32:02;101695.19;;;18.36;100.00
16481;BME280;44634;54.110;12.138;2022-10-03T13:34:52;101703.22;;;18.28;100.00
16481;BME280;44634;54.110;12.138;2022-10-03T13:37:28;101708.91;;;18.25;100.00
16481;BME280;44634;54.110;12.138;2022-10-03T13:40:04;101708.44;;;18.46;100.00
16481;BME280;44634;54.110;12.138;2022-10-03T13:42:37;101778.75;;;19.86;100.00
16481;BME280;44634;54.110;12.138;2022-10-03T13:45:13;101873.16;;;20.54;100.00
16481;BME280;44634;54.110;12.138;2022-10-03T13:47:46;101946.78;;;20.84;100.00
16481;BME280;44634;54.110;12.138;2022-10-03T13:50:20;101910.44;;;19.85;100.00
16481;BME280;44634;54.110;12.138;2022-10-03T13:52:54;101884.38;;;18.96;100.00
16481;BME280;44634;54.110;12.138;2022-10-03T13:55:31;101861.53;;;18.76;100.00
16481;BME280;44634;54.110;12.138;2022-10-03T14:01:13;101919.13;;;19.95;100.00
16481;BME280;44634;54.110;12.138;2022-10-03T14:03:59;101937.47;;;21.25;100.00
16481;BME280;44634;54.110;12.138;2022-10-03T14:06:33;101948.41;;;21.69;100.00
16481;BME280;44634;54.110;12.138;2022-10-03T14:09:46;101951.38;;;21.06;100.00
16481;BME280;44634;54.110;12.138;2022-10-03T14:12:26;101918.00;;;19.73;100.00
16481;BME280;44634;54.110;12.138;2022-10-03T14:15:25;101899.63;;;20.09;100.00
16481;BME280;44634;54.110;12.138;2022-10-03T14:18:06;101912.78;;;19.80;100.00
16481;BME280;44634;54.110;12.138;2022-10-03T14:23:33;101912.50;;;18.92;100.00
16481;BME280;44634;54.110;12.138;2022-10-03T14:26:10;101872.31;;;19.00;100.00
16481;BME280;44634;54.110;12.138;2022-10-03T14:28:45;101852.97;;;18.64;100.00
16481;BME280;44634;54.110;12.138;2022-10-03T14:31:20;101847.56;;;18.56;100.00
16481;BME280;44634;54.110;12.138;2022-10-03T14:33:55;101839.66;;;19.78;100.00
16481;BME280;44634;54.110;12.138;2022-10-03T14:36:35;101915.47;;;20.60;100.00
16481;BME280;44634;54.110;12.138;2022-10-03T14:39:21;101943.88;;;20.38;100.00
16481;BME280;44634;54.110;12.138;2022-10-03T14:42:16;101914.06;;;20.08;100.00
16481;BME280;44634;54.110;12.138;2022-10-03T14:44:53;101946.34;;;21.34;100.00
16481;BME280;44634;54.110;12.138;2022-10-03T14:47:23;101954.97;;;20.51;100.00
16481;BME280;44634;54.110;12.138;2022-10-03T14:49:54;101953.16;;;20.83;100.00
16481;BME280;44634;54.110;12.138;2022-10-03T14:52:32;101968.91;;;21.33;100.00
16481;BME280;44634;54.110;12.138;2022-10-03T14:55:07;101974.63;;;21.53;100.00
16481;BME280;44634;54.110;12.138;2022-10-03T14:57:41;101970.44;;;20.88;100.00
16481;BME280;44634;54.110;12.138;2022-10-03T15:00:40;101942.06;;;20.86;100.00
16481;BME280;44634;54.110;12.138;2022-10-03T15:03:29;101957.22;;;20.78;100.00
16481;BME280;44634;54.110;12.138;2022-10-03T15:06:29;101895.16;;;19.45;100.00
16481;BME280;44634;54.110;12.138;2022-10-03T15:09:01;101881.41;;;19.31;100.00
16481;BME280;44634;54.110;12.138;2022-10-03T15:11:33;101869.59;;;18.41;100.00
16481;BME280;44634;54.110;12.138;2022-10-03T15:14:05;101825.19;;;18.23;100.00
16481;BME280;44634;54.110;12.138;2022-10-03T15:16:39;101790.19;;;17.82;100.00
16481;BME280;44634;54.110;12.138;2022-10-03T15:19:14;101755.75;;;17.87;100.00
16481;BME280;44634;54.110;12.138;2022-10-03T15:21:44;101732.25;;;17.39;100.00
16481;BME280;44634;54.110;12.138;2022-10-03T15:24:20;101703.25;;;17.86;100.00
16481;BME280;44634;54.110;12.138;2022-10-03T15:26:54;101700.25;;;17.63;100.00
16481;BME280;44634;54.110;12.138;2022-10-03T15:29:25;101679.63;;;17.47;100.00
16481;BME280;44634;54.110;12.138;2022-10-03T15:31:55;101702.97;;;17.97;100.00
16481;BME280;44634;54.110;12.138;2022-10-03T15:34:29;101660.84;;;17.65;100.00
16481;BME280;44634;54.110;12.138;2022-10-03T15:37:00;101653.06;;;17.80;100.00
16481;BME280;44634;54.110;12.138;2022-10-03T15:39:36;101688.59;;;18.06;100.00
16481;BME280;44634;54.110;12.138;2022-10-03T15:42:19;101668.81;;;17.91;100.00
16481;BME280;44634;54.110;12.138;2022-10-03T15:44:51;101691.16;;;17.74;100.00
16481;BME280;44634;54.110;12.138;2022-10-03T15:47:21;101713.19;;;17.68;100.00
16481;BME280;44634;54.110;12.138;2022-10-03T15:49:54;101680.47;;;17.74;100.00
16481;BME280;44634;54.110;12.138;2022-10-03T15:52:42;101693.31;;;17.44;100.00
16481;BME280;44634;54.110;12.138;2022-10-03T15:55:16;101653.22;;;17.44;100.00
16481;BME280;44634;54.110;12.138;2022-10-03T15:57:48;101679.69;;;17.64;100.00
16481;BME280;44634;54.110;12.138;2022-10-03T16:00:22;101702.75;;;17.91;100.00
16481;BME280;44634;54.110;12.138;2022-10-03T16:02:59;101698.00;;;17.68;100.00
16481;BME280;44634;54.110;12.138;2022-10-03T16:05:32;101693.72;;;17.58;100.00
16481;BME280;44634;54.110;12.138;2022-10-03T16:08:03;101659.66;;;17.25;100.00
16481;BME280;44634;54.110;12.138;2022-10-03T16:10:37;101664.59;;;17.20;100.00
16481;BME280;44634;54.110;12.138;2022-10-03T16:13:20;101630.00;;;17.45;100.00
16481;BME280;44634;54.110;12.138;2022-10-03T16:16:07;101591.75;;;17.10;100.00
16481;BME280;44634;54.110;12.138;2022-10-03T16:18:43;101580.50;;;16.99;100.00
16481;BME280;44634;54.110;12.138;2022-10-03T16:21:18;101573.00;;;17.36;100.00
16481;BME280;44634;54.110;12.138;2022-10-03T16:23:52;101576.06;;;17.15;100.00
16481;BME280;44634;54.110;12.138;2022-10-03T16:26:27;101552.59;;;17.35;100.00
16481;BME280;44634;54.110;12.138;2022-10-03T16:29:02;101570.03;;;17.13;100.00
16481;BME280;44634;54.110;12.138;2022-10-03T16:31:39;101529.44;;;17.10;100.00
16481;BME280;44634;54.110;12.138;2022-10-03T16:34:18;101518.09;;;17.16;100.00
16481;BME280;44634;54.110;12.138;2022-10-03T16:36:48;101511.25;;;17.13;100.00
16481;BME280;44634;54.110;12.138;2022-10-03T16:39:20;101513.53;;;17.00;100.00
16481;BME280;44634;54.110;12.138;2022-10-03T16:41:52;101481.69;;;17.15;100.00
16481;BME280;44634;54.110;12.138;2022-10-03T16:44:27;101507.19;;;17.01;100.00
16481;BME280;44634;54.110;12.138;2022-10-03T16:47:01;101469.63;;;17.03;100.00
16481;BME280;44634;54.110;12.138;2022-10-03T16:49:38;101465.94;;;17.04;100.00
16481;BME280;44634;54.110;12.138;2022-10-03T16:52:30;101455.44;;;17.02;100.00